createdAt,value
2022-12-29T00:01:31.182Z,11.27
2022-12-29T00:04:32.684Z,5.95
2022-12-29T00:07:34.177Z,9.50
2022-12-29T00:10:35.604Z,8.03
2022-12-29T00:13:55.654Z,8.60
2022-12-29T00:16:57.636Z,6.85
2022-12-29T00:20:17.935Z,6.97
2022-12-29T00:23:37.682Z,8.75
2022-12-29T00:26:57.482Z,8.15
2022-12-29T00:30:18.013Z,11.05
2022-12-29T00:33:40.067Z,7.97
2022-12-29T00:36:44.101Z,10.07
2022-12-29T00:40:04.064Z,5.53
2022-12-29T00:43:25.350Z,9.32
2022-12-29T00:46:26.857Z,10.07
2022-12-29T00:49:31.186Z,6.05
2022-12-29T00:52:32.667Z,8.80
2022-12-29T00:55:37.742Z,8.43
2022-12-29T00:58:39.318Z,10.20
2022-12-29T01:01:41.132Z,9.23
2022-12-29T01:04:42.797Z,5.97
2022-12-29T01:07:44.242Z,6.67
2022-12-29T01:10:45.727Z,8.20
2022-12-29T01:13:47.163Z,8.70
2022-12-29T01:16:49.132Z,9.47
2022-12-29T01:19:52.226Z,8.35
2022-12-29T01:22:53.683Z,6.50
2022-12-29T01:25:55.419Z,7.60
2022-12-29T01:28:56.910Z,7.18
2022-12-29T01:31:58.469Z,7.97
2022-12-29T01:35:00.002Z,7.97
2022-12-29T01:38:01.452Z,11.67
2022-12-29T01:41:03.684Z,7.13
2022-12-29T01:44:48.370Z,9.40
2022-12-29T01:48:04.596Z,6.47
2022-12-29T01:51:06.174Z,9.50
2022-12-29T01:54:17.762Z,7.95
2022-12-29T01:57:24.993Z,9.45
2022-12-29T02:00:26.574Z,9.20
2022-12-29T02:03:29.787Z,7.40
2022-12-29T02:06:42.837Z,8.73
2022-12-29T02:09:49.614Z,7.15
2022-12-29T02:12:51.889Z,8.43
2022-12-29T02:19:20.295Z,8.93
2022-12-29T02:23:00.883Z,7.22
2022-12-29T02:26:30.647Z,6.65
2022-12-29T02:29:55.614Z,5.78
2022-12-29T02:32:57.123Z,6.30
2022-12-29T02:36:13.785Z,8.63
2022-12-29T02:39:37.399Z,6.68
2022-12-29T02:42:57.554Z,5.82
2022-12-29T02:46:28.866Z,10.00
2022-12-29T02:49:42.645Z,7.30
2022-12-29T02:52:51.288Z,7.30
2022-12-29T02:55:53.217Z,5.80
2022-12-29T02:58:54.704Z,6.18
2022-12-29T03:02:27.548Z,8.73
2022-12-29T03:05:57.331Z,6.60
2022-12-29T03:09:19.481Z,6.63
2022-12-29T03:12:52.003Z,10.77
2022-12-29T03:16:28.767Z,6.00
2022-12-29T03:19:42.036Z,7.32
2022-12-29T03:22:48.833Z,5.40
2022-12-29T03:25:59.443Z,9.68
2022-12-29T03:29:01.546Z,7.70
2022-12-29T03:32:08.000Z,6.43
2022-12-29T03:35:13.406Z,7.93
2022-12-29T03:38:16.351Z,8.48
2022-12-29T03:41:26.822Z,12.85
2022-12-29T03:44:38.390Z,8.20
2022-12-29T03:47:39.946Z,8.23
2022-12-29T03:50:42.033Z,12.27
2022-12-29T03:53:43.471Z,6.80
2022-12-29T03:56:44.944Z,8.17
2022-12-29T03:59:49.098Z,8.65
2022-12-29T04:02:51.402Z,10.43
2022-12-29T04:05:57.890Z,8.02
2022-12-29T04:09:00.059Z,9.25
2022-12-29T04:12:01.883Z,8.68
2022-12-29T04:15:04.177Z,7.75
2022-12-29T04:18:05.963Z,9.77
2022-12-29T04:21:09.166Z,9.45
2022-12-29T04:24:13.967Z,8.35
2022-12-29T04:27:16.712Z,7.88
2022-12-29T04:30:38.669Z,10.65
2022-12-29T04:33:50.063Z,9.02
2022-12-29T04:36:51.690Z,8.60
2022-12-29T04:39:53.332Z,12.60
2022-12-29T04:42:54.955Z,9.90
2022-12-29T04:45:58.125Z,9.30
2022-12-29T04:49:09.317Z,9.93
2022-12-29T04:52:28.180Z,9.60
2022-12-29T04:55:30.634Z,11.77
2022-12-29T04:58:32.253Z,7.25
2022-12-29T05:01:34.912Z,10.52
2022-12-29T05:04:36.716Z,7.75
2022-12-29T05:07:38.428Z,8.93
2022-12-29T05:10:40.041Z,9.30
2022-12-29T05:13:47.451Z,8.18
2022-12-29T05:16:50.584Z,11.48
2022-12-29T05:19:52.659Z,8.77
2022-12-29T05:22:54.844Z,8.32
2022-12-29T05:25:56.375Z,7.33
2022-12-29T05:32:10.706Z,8.68
2022-12-29T05:35:12.268Z,7.88
2022-12-29T05:38:13.986Z,8.70
2022-12-29T05:41:17.334Z,10.90
2022-12-29T05:44:35.159Z,10.73
2022-12-29T05:47:50.252Z,9.38
2022-12-29T05:51:21.109Z,9.43
2022-12-29T05:54:24.512Z,9.50
2022-12-29T05:57:27.058Z,8.40
2022-12-29T06:00:45.760Z,9.10
2022-12-29T06:03:48.610Z,9.02
2022-12-29T06:06:51.533Z,9.68
2022-12-29T06:09:59.523Z,10.20
2022-12-29T06:13:02.239Z,7.90
2022-12-29T06:16:06.986Z,8.88
2022-12-29T06:19:08.620Z,15.15
2022-12-29T06:22:13.045Z,11.88
2022-12-29T06:25:16.159Z,10.93
2022-12-29T06:28:18.743Z,7.80
2022-12-29T06:31:20.664Z,10.18
2022-12-29T06:34:23.482Z,8.30
2022-12-29T06:37:24.994Z,8.48
2022-12-29T06:40:26.544Z,7.23
2022-12-29T06:43:43.171Z,9.60
2022-12-29T06:47:04.091Z,7.95
2022-12-29T06:50:06.187Z,10.67
2022-12-29T06:53:07.889Z,10.18
2022-12-29T06:56:09.413Z,8.48
2022-12-29T06:59:11.028Z,8.20
2022-12-29T07:02:13.093Z,8.07
2022-12-29T07:05:14.838Z,7.88
2022-12-29T07:08:16.269Z,9.53
2022-12-29T07:11:18.793Z,7.43
2022-12-29T07:14:20.208Z,11.67
2022-12-29T07:17:21.764Z,10.00
2022-12-29T07:20:27.009Z,7.78
2022-12-29T07:23:28.906Z,8.52
2022-12-29T07:26:35.899Z,8.93
2022-12-29T07:29:38.551Z,12.35
2022-12-29T07:32:40.072Z,9.70
2022-12-29T07:35:41.505Z,12.17
2022-12-29T07:38:43.868Z,11.70
2022-12-29T07:44:52.017Z,7.72
2022-12-29T07:48:09.335Z,8.77
2022-12-29T07:51:11.010Z,9.18
2022-12-29T07:54:13.547Z,7.75
2022-12-29T07:57:15.101Z,8.45
2022-12-29T08:00:16.927Z,11.80
2022-12-29T08:03:18.605Z,8.93
2022-12-29T08:06:20.962Z,9.15
2022-12-29T08:12:26.079Z,8.05
2022-12-29T08:15:32.335Z,8.18
2022-12-29T08:18:34.406Z,9.25
2022-12-29T08:21:36.020Z,8.48
2022-12-29T08:24:37.479Z,9.02
2022-12-29T08:27:38.928Z,10.70
2022-12-29T08:30:40.351Z,8.17
2022-12-29T08:33:41.857Z,12.40
2022-12-29T08:36:43.300Z,8.17
2022-12-29T08:39:44.789Z,9.47
2022-12-29T08:42:46.217Z,14.33
2022-12-29T08:45:47.739Z,9.10
2022-12-29T08:48:49.143Z,10.40
2022-12-29T08:51:51.523Z,6.23
2022-12-29T08:57:55.480Z,8.82
2022-12-29T09:00:59.377Z,12.10
2022-12-29T09:04:17.572Z,15.73
2022-12-29T09:07:19.529Z,9.88
2022-12-29T09:10:20.960Z,6.63
2022-12-29T09:13:22.530Z,8.37
2022-12-29T09:16:25.303Z,8.07
2022-12-29T09:19:27.157Z,8.13
2022-12-29T09:22:28.668Z,8.73
2022-12-29T09:25:30.234Z,9.83
2022-12-29T09:28:32.107Z,9.55
2022-12-29T09:31:33.649Z,7.75
2022-12-29T09:34:35.337Z,16.90
2022-12-29T09:37:37.118Z,12.32
2022-12-29T09:40:40.719Z,10.63
2022-12-29T09:43:54.908Z,9.88
2022-12-29T09:46:58.062Z,14.35
2022-12-29T09:50:21.146Z,12.93
2022-12-29T09:53:30.297Z,9.15
2022-12-29T09:56:31.964Z,10.07
2022-12-29T09:59:43.441Z,8.77
2022-12-29T10:02:52.792Z,7.82
2022-12-29T10:06:06.944Z,10.70
2022-12-29T10:09:11.304Z,8.13
2022-12-29T10:12:37.040Z,8.82
2022-12-29T10:15:56.214Z,8.52
2022-12-29T10:19:15.343Z,7.68
2022-12-29T10:22:39.803Z,8.93
2022-12-29T10:25:43.517Z,11.38
2022-12-29T10:28:51.667Z,7.30
2022-12-29T10:32:00.675Z,11.70
2022-12-29T10:35:18.907Z,9.73
2022-12-29T10:38:24.940Z,10.07
2022-12-29T10:41:49.301Z,7.85
2022-12-29T10:44:51.046Z,11.20
2022-12-29T10:48:06.428Z,9.65
2022-12-29T10:51:12.194Z,8.93
2022-12-29T10:54:29.007Z,10.10
2022-12-29T10:57:37.510Z,9.27
2022-12-29T11:00:39.121Z,7.15
2022-12-29T11:03:50.840Z,10.18
2022-12-29T11:06:52.753Z,7.38
2022-12-29T11:09:54.875Z,8.00
2022-12-29T11:13:01.706Z,10.00
2022-12-29T11:16:03.984Z,8.07
2022-12-29T11:22:37.749Z,10.07
2022-12-29T11:25:39.233Z,8.88
2022-12-29T11:28:44.004Z,7.93
2022-12-29T11:31:53.644Z,9.32
2022-12-29T11:34:55.201Z,9.13
2022-12-29T11:37:58.900Z,8.90
2022-12-29T11:41:00.373Z,10.18
2022-12-29T11:44:06.789Z,10.98
2022-12-29T11:47:13.577Z,9.82
2022-12-29T11:50:36.725Z,8.93
2022-12-29T11:53:48.501Z,13.25
2022-12-29T11:56:51.126Z,9.10
2022-12-29T11:59:56.269Z,9.75
2022-12-29T12:03:01.980Z,8.18
2022-12-29T12:06:04.113Z,10.50
2022-12-29T12:09:11.395Z,7.88
2022-12-29T12:12:42.852Z,7.07
2022-12-29T12:15:56.113Z,7.85
2022-12-29T12:19:04.959Z,10.32
2022-12-29T12:22:14.810Z,10.27
2022-12-29T12:25:24.560Z,9.80
2022-12-29T12:28:36.915Z,10.15
2022-12-29T12:31:58.623Z,11.65
2022-12-29T12:35:00.210Z,11.02
2022-12-29T12:38:10.751Z,13.75
2022-12-29T12:41:16.738Z,10.68
2022-12-29T12:44:21.215Z,6.75
2022-12-29T12:47:50.680Z,13.53
2022-12-29T12:51:21.640Z,11.82
2022-12-29T12:54:46.838Z,8.95
2022-12-29T12:58:01.000Z,9.45
2022-12-29T13:01:15.522Z,15.55
2022-12-29T13:04:35.128Z,10.20
2022-12-29T13:07:59.597Z,10.23
2022-12-29T13:11:16.201Z,12.23
2022-12-29T13:14:58.803Z,9.18
2022-12-29T13:18:31.791Z,9.15
2022-12-29T13:22:10.874Z,9.27
2022-12-29T13:25:34.065Z,6.85
2022-12-29T13:29:04.714Z,18.27
2022-12-29T13:32:18.660Z,7.57
2022-12-29T13:35:41.765Z,12.18
2022-12-29T13:39:20.692Z,9.20
2022-12-29T13:42:24.266Z,9.82
2022-12-29T13:45:29.443Z,8.65
2022-12-29T13:48:47.599Z,13.63
2022-12-29T13:51:52.814Z,9.20
2022-12-29T13:55:20.508Z,7.65
2022-12-29T13:58:52.869Z,8.23
2022-12-29T14:02:12.065Z,6.80
2022-12-29T14:05:22.401Z,9.55
2022-12-29T14:08:23.897Z,9.02
2022-12-29T14:11:32.342Z,10.50
2022-12-29T14:14:33.892Z,7.57
2022-12-29T14:17:35.674Z,9.80
2022-12-29T14:20:37.727Z,12.50
2022-12-29T14:23:43.483Z,9.73
2022-12-29T14:26:45.116Z,6.35
2022-12-29T14:29:48.895Z,10.23
2022-12-29T14:33:12.439Z,11.45
2022-12-29T14:36:21.598Z,10.90
2022-12-29T14:39:46.800Z,13.95
2022-12-29T14:42:50.200Z,9.48
2022-12-29T14:46:01.701Z,12.30
2022-12-29T14:49:03.313Z,12.23
2022-12-29T14:52:21.632Z,14.10
2022-12-29T14:55:44.605Z,9.82
2022-12-29T14:58:54.848Z,5.28
2022-12-29T15:01:57.427Z,5.95
2022-12-29T15:05:01.118Z,7.13
2022-12-29T15:08:04.779Z,7.28
2022-12-29T15:11:19.695Z,6.03
2022-12-29T15:14:26.908Z,4.43
2022-12-29T15:17:33.865Z,6.05
2022-12-29T15:20:35.368Z,7.13
2022-12-29T15:23:38.432Z,6.43
2022-12-29T15:26:42.922Z,4.22
2022-12-29T15:29:46.581Z,8.05
2022-12-29T15:32:49.915Z,8.68
2022-12-29T15:35:52.766Z,6.97
2022-12-29T15:38:54.446Z,6.05
2022-12-29T15:42:16.715Z,10.18
2022-12-29T15:45:18.282Z,9.38
2022-12-29T15:48:25.297Z,8.80
2022-12-29T15:51:32.142Z,11.73
2022-12-29T15:54:34.762Z,9.30
2022-12-29T15:57:44.014Z,10.15
2022-12-29T16:00:49.880Z,14.57
2022-12-29T16:03:53.057Z,20.50
2022-12-29T16:07:00.391Z,28.80
2022-12-29T16:10:04.058Z,29.33
2022-12-29T16:13:18.969Z,21.73
2022-12-29T16:16:27.298Z,13.95
2022-12-29T16:19:34.567Z,13.05
2022-12-29T16:22:41.409Z,8.23
2022-12-29T16:25:42.919Z,9.18
2022-12-29T16:28:45.333Z,9.05
2022-12-29T16:35:04.203Z,9.23
2022-12-29T16:38:15.859Z,7.72
2022-12-29T16:41:33.051Z,8.80
2022-12-29T16:44:34.529Z,8.77
2022-12-29T16:47:35.954Z,14.43
2022-12-29T16:50:40.924Z,10.70
2022-12-29T16:53:48.859Z,9.30
2022-12-29T16:56:51.800Z,9.68
2022-12-29T16:59:57.096Z,11.35
2022-12-29T17:03:01.212Z,12.30
2022-12-29T17:06:03.697Z,15.02
2022-12-29T17:09:22.724Z,13.45
2022-12-29T17:12:32.030Z,10.93
2022-12-29T17:15:35.157Z,12.38
2022-12-29T17:18:37.216Z,13.50
2022-12-29T17:21:38.792Z,10.05
2022-12-29T17:24:40.210Z,11.77
2022-12-29T17:27:45.893Z,11.13
2022-12-29T17:30:47.873Z,15.18
2022-12-29T17:33:49.622Z,12.70
2022-12-29T17:36:51.185Z,17.05
2022-12-29T17:39:52.725Z,14.05
2022-12-29T17:42:56.185Z,12.97
2022-12-29T17:45:59.545Z,10.88
2022-12-29T17:49:01.445Z,14.10
2022-12-29T17:52:04.174Z,12.90
2022-12-29T17:55:05.791Z,28.52
2022-12-29T17:58:29.150Z,25.35
2022-12-29T18:01:35.875Z,21.92
2022-12-29T18:04:39.739Z,15.82
2022-12-29T18:07:41.419Z,17.00
2022-12-29T18:10:43.030Z,12.60
2022-12-29T18:13:46.900Z,11.95
2022-12-29T18:16:48.577Z,9.63
2022-12-29T18:19:52.330Z,9.52
2022-12-29T18:22:53.935Z,7.03
2022-12-29T18:25:59.854Z,8.25
2022-12-29T18:29:01.680Z,8.65
2022-12-29T18:32:03.492Z,9.05
2022-12-29T18:35:30.198Z,9.15
2022-12-29T18:38:32.175Z,6.63
2022-12-29T18:41:34.356Z,6.07
2022-12-29T18:44:35.933Z,6.20
2022-12-29T18:47:37.460Z,6.15
2022-12-29T18:50:38.892Z,5.87
2022-12-29T18:53:40.348Z,10.93
2022-12-29T18:56:41.864Z,8.20
2022-12-29T18:59:43.304Z,10.13
2022-12-29T19:02:45.707Z,6.43
2022-12-29T19:08:50.228Z,5.18
2022-12-29T19:11:51.664Z,9.07
2022-12-29T19:14:53.239Z,10.27
2022-12-29T19:18:32.998Z,9.40
2022-12-29T19:21:19.907Z,9.52
2022-12-29T19:24:21.468Z,9.35
2022-12-29T19:27:23.370Z,10.30
2022-12-29T19:30:24.864Z,11.70
2022-12-29T19:33:26.476Z,8.60
2022-12-29T19:36:28.024Z,8.10
2022-12-29T19:39:29.462Z,9.33
2022-12-29T19:42:30.900Z,12.43
2022-12-29T19:45:32.315Z,8.23
2022-12-29T19:48:34.123Z,10.77
2022-12-29T19:51:35.599Z,9.45
2022-12-29T19:54:37.033Z,10.00
2022-12-29T19:57:38.525Z,7.45
2022-12-29T20:00:41.601Z,8.10
2022-12-29T20:03:43.369Z,9.30
2022-12-29T20:06:44.841Z,6.80
2022-12-29T20:09:46.652Z,6.63
2022-12-29T20:12:48.137Z,7.18
2022-12-29T20:15:49.543Z,5.97
2022-12-29T20:18:51.183Z,6.60
2022-12-29T20:21:52.695Z,8.73
2022-12-29T20:25:11.321Z,6.70
2022-12-29T20:28:16.884Z,6.38
2022-12-29T20:34:21.717Z,6.93
2022-12-29T20:37:23.434Z,8.30
2022-12-29T20:40:25.119Z,7.82
2022-12-29T20:43:26.729Z,6.70
2022-12-29T20:46:35.042Z,6.57
2022-12-29T20:52:42.383Z,8.40
2022-12-29T20:55:43.967Z,9.13
2022-12-29T20:59:25.722Z,6.63
2022-12-29T21:02:07.573Z,7.07
2022-12-29T21:08:30.233Z,7.40
2022-12-29T21:11:31.971Z,4.90
2022-12-29T21:14:33.474Z,5.35
2022-12-29T21:17:35.577Z,5.90
2022-12-29T21:20:37.194Z,6.50
2022-12-29T21:23:39.244Z,4.90
2022-12-29T21:26:40.831Z,5.55
2022-12-29T21:29:42.258Z,5.27
2022-12-29T21:32:43.709Z,4.93
2022-12-29T21:35:46.388Z,5.40
2022-12-29T21:38:48.001Z,5.25
2022-12-29T21:41:50.207Z,5.20
2022-12-29T21:48:20.932Z,4.40
2022-12-29T21:51:41.138Z,3.95
2022-12-29T21:55:00.555Z,5.22
2022-12-29T21:58:20.702Z,4.45
2022-12-29T22:01:41.572Z,4.65
2022-12-29T22:05:02.416Z,3.72
2022-12-29T22:08:23.122Z,3.63
2022-12-29T22:11:43.218Z,3.60
2022-12-29T22:14:44.880Z,2.33
2022-12-29T22:17:49.073Z,3.25
2022-12-29T22:20:50.898Z,4.05
2022-12-29T22:23:52.456Z,2.78
2022-12-29T22:26:54.032Z,1.30
2022-12-29T22:29:55.434Z,4.27
2022-12-29T22:32:58.212Z,3.73
2022-12-29T22:35:59.796Z,3.97
2022-12-29T22:39:01.333Z,4.18
2022-12-29T22:42:02.796Z,2.30
2022-12-29T22:45:04.987Z,1.87
2022-12-29T22:48:06.801Z,2.90
2022-12-29T22:51:08.340Z,2.53
2022-12-29T22:54:10.119Z,1.67
2022-12-29T22:57:11.954Z,2.67
2022-12-29T23:00:13.639Z,2.53
2022-12-29T23:03:15.278Z,4.43
2022-12-29T23:06:17.335Z,3.47
2022-12-29T23:09:21.173Z,2.55
2022-12-29T23:12:22.701Z,3.50
2022-12-29T23:15:24.189Z,2.23
2022-12-29T23:18:26.287Z,2.63
2022-12-29T23:21:27.746Z,2.15
2022-12-29T23:24:29.282Z,2.15
2022-12-29T23:27:30.729Z,2.20
2022-12-29T23:30:32.222Z,2.05
2022-12-29T23:33:33.866Z,2.07
2022-12-29T23:36:35.853Z,2.80
2022-12-29T23:39:37.394Z,2.50
2022-12-29T23:42:38.861Z,5.87
2022-12-29T23:45:43.567Z,1.33
2022-12-29T23:48:48.089Z,2.08
2022-12-29T23:51:49.544Z,2.70
2022-12-29T23:54:50.950Z,2.87
2022-12-29T23:57:52.453Z,3.42
